WXM80 ListenWXM80 Stop

You find our weather info also at:

UK Metoffice

WeatherCloud

Weather Underground

Northeastern Weather Network

AWEKAS

Citizen Weather Observer Program (CWOP)

HAMweather, WeatherForYou, PWS Weather


Weather Underground History page Text

Daily Summary for April 25, 2017 Units:  Both    English   Metric
« Previous Day
Next Day »
Daily Weekly Monthly Yearly Custom
  High: Low: Average:
Temperature: 51.4 °F /  10.8 °C 47.9 °F /  8.8 °C 49.4 °F /  9.7 °C
Dew Point: 50.9 °F /  10.5 °C 46.6 °F /  8.1 °C 48.7 °F /  9.3 °C
Humidity: 98 % 94 % 97 %
Wind Speed: 11.7 mph /  18.8 km/h - 7.5 mph /  12.1 km/h
Wind Gust: 20.0 mph /  32.2 km/h - -
Wind:- - East
Pressure: 30.11 in /  1019.5 hPa 29.85 in /  1010.7 hPa -
Precipitation: 0.61 in /  15.49 mm    
Historical Graphs
 
 
Tabular Data for April 25, 2017
Time Temperature Dew Point Pressure Wind Wind Speed Wind Gust Humidity Rainfall Rate (Hourly)
00:03 48.4 °F /  9.1 °C 46.8 °F /  8.2 °C 30.11 in /  1019.5 hPa ENE 3.4 mph /  5.5 km/h 4.0 mph /  6.4 km/h 94 % 0.00 in /  0 mm
00:08 48.4 °F /  9.1 °C 46.8 °F /  8.2 °C 30.11 in /  1019.5 hPa East 3.6 mph /  5.8 km/h 6.9 mph /  11.1 km/h 94 % 0.00 in /  0 mm
00:13 48.4 °F /  9.1 °C 46.8 °F /  8.2 °C 30.11 in /  1019.5 hPa ENE 2.5 mph /  4 km/h 5.8 mph /  9.3 km/h 94 % 0.00 in /  0 mm
00:18 48.4 °F /  9.1 °C 46.8 °F /  8.2 °C 30.11 in /  1019.5 hPa ENE 2.5 mph /  4 km/h 4.0 mph /  6.4 km/h 94 % 0.00 in /  0 mm
00:23 48.4 °F /  9.1 °C 46.8 °F /  8.2 °C 30.11 in /  1019.5 hPa ENE 3.0 mph /  4.8 km/h 5.0 mph /  8 km/h 94 % 0.00 in /  0 mm
00:28 48.4 °F /  9.1 °C 46.8 °F /  8.2 °C 30.11 in /  1019.5 hPa ENE 2.5 mph /  4 km/h 3.5 mph /  5.6 km/h 94 % 0.00 in /  0 mm
00:33 48.4 °F /  9.1 °C 46.8 °F /  8.2 °C 30.11 in /  1019.5 hPa NE 3.5 mph /  5.6 km/h 4.6 mph /  7.4 km/h 94 % 0.00 in /  0 mm
00:38 48.4 °F /  9.1 °C 46.8 °F /  8.2 °C 30.11 in /  1019.5 hPa ENE 3.6 mph /  5.8 km/h 5.8 mph /  9.3 km/h 94 % 0.00 in /  0 mm
00:43 48.4 °F /  9.1 °C 46.8 °F /  8.2 °C 30.11 in /  1019.5 hPa ENE 3.0 mph /  4.8 km/h 8.0 mph /  12.9 km/h 94 % 0.00 in /  0 mm
00:48 48.3 °F /  9.1 °C 46.7 °F /  8.2 °C 30.11 in /  1019.5 hPa ENE 2.7 mph /  4.3 km/h 4.6 mph /  7.4 km/h 94 % 0.00 in /  0 mm
00:53 48.3 °F /  9.1 °C 46.7 °F /  8.2 °C 30.11 in /  1019.5 hPa ENE 2.7 mph /  4.3 km/h 4.6 mph /  7.4 km/h 94 % 0.00 in /  0 mm
00:58 48.3 °F /  9.1 °C 46.7 °F /  8.2 °C 30.11 in /  1019.5 hPa ENE 4.4 mph /  7.1 km/h 5.0 mph /  8 km/h 94 % 0.00 in /  0 mm
01:03 48.3 °F /  9.1 °C 46.7 °F /  8.2 °C 30.10 in /  1019.2 hPa ENE 3.1 mph /  5 km/h 4.6 mph /  7.4 km/h 94 % 0.00 in /  0 mm
01:08 48.3 °F /  9.1 °C 46.9 °F /  8.3 °C 30.11 in /  1019.5 hPa ENE 3.3 mph /  5.3 km/h 5.0 mph /  8 km/h 95 % 0.00 in /  0 mm
01:13 48.3 °F /  9.1 °C 46.9 °F /  8.3 °C 30.11 in /  1019.5 hPa East 3.3 mph /  5.3 km/h 8.0 mph /  12.9 km/h 95 % 0.00 in /  0 mm
01:18 48.3 °F /  9.1 °C 46.9 °F /  8.3 °C 30.10 in /  1019.2 hPa ENE 4.7 mph /  7.6 km/h 6.9 mph /  11.1 km/h 95 % 0.00 in /  0 mm
01:23 48.2 °F /  9 °C 46.8 °F /  8.2 °C 30.10 in /  1019.2 hPa East 3.7 mph /  6 km/h 6.9 mph /  11.1 km/h 95 % 0.00 in /  0 mm
01:28 48.2 °F /  9 °C 46.8 °F /  8.2 °C 30.10 in /  1019.2 hPa ENE 4.0 mph /  6.4 km/h 4.6 mph /  7.4 km/h 95 % 0.00 in /  0 mm
01:33 48.2 °F /  9 °C 46.8 °F /  8.2 °C 30.10 in /  1019.2 hPa ENE 5.4 mph /  8.7 km/h 8.1 mph /  13 km/h 95 % 0.00 in /  0 mm
01:38 48.1 °F /  8.9 °C 46.7 °F /  8.2 °C 30.10 in /  1019.2 hPa ENE 4.8 mph /  7.7 km/h 8.1 mph /  13 km/h 95 % 0.00 in /  0 mm
01:43 48.1 °F /  8.9 °C 46.7 °F /  8.2 °C 30.10 in /  1019.2 hPa East 5.5 mph /  8.9 km/h 8.1 mph /  13 km/h 95 % 0.00 in /  0 mm
01:48 48.0 °F /  8.9 °C 46.6 °F /  8.1 °C 30.10 in /  1019.2 hPa East 4.0 mph /  6.4 km/h 6.9 mph /  11.1 km/h 95 % 0.01 in /  0.25 mm
01:53 48.0 °F /  8.9 °C 46.6 °F /  8.1 °C 30.10 in /  1019.2 hPa ENE 4.3 mph /  6.9 km/h 7.0 mph /  11.3 km/h 95 % 0.01 in /  0.25 mm
01:58 48.1 °F /  8.9 °C 46.7 °F /  8.2 °C 30.10 in /  1019.2 hPa ENE 4.2 mph /  6.8 km/h 4.6 mph /  7.4 km/h 95 % 0.01 in /  0.25 mm
02:03 48.1 °F /  8.9 °C 47.0 °F /  8.3 °C 30.10 in /  1019.2 hPa ENE 3.4 mph /  5.5 km/h 5.8 mph /  9.3 km/h 96 % 0.01 in /  0.25 mm
02:08 48.1 °F /  8.9 °C 47.0 °F /  8.3 °C 30.09 in /  1018.8 hPa East 4.5 mph /  7.2 km/h 6.9 mph /  11.1 km/h 96 % 0.01 in /  0.25 mm
02:18 48.1 °F /  8.9 °C 47.0 °F /  8.3 °C 30.09 in /  1018.8 hPa ENE 4.5 mph /  7.2 km/h 6.9 mph /  11.1 km/h 96 % 0.01 in /  0.25 mm
02:24 48.1 °F /  8.9 °C 47.0 °F /  8.3 °C 30.09 in /  1018.8 hPa ENE 4.7 mph /  7.6 km/h 6.9 mph /  11.1 km/h 96 % 0.01 in /  0.25 mm
02:29 48.0 °F /  8.9 °C 46.9 °F /  8.3 °C 30.08 in /  1018.5 hPa ENE 3.4 mph /  5.5 km/h 7.0 mph /  11.3 km/h 96 % 0.01 in /  0.25 mm
02:34 48.0 °F /  8.9 °C 46.9 °F /  8.3 °C 30.08 in /  1018.5 hPa ENE 4.9 mph /  7.9 km/h 8.1 mph /  13 km/h 96 % 0.01 in /  0.25 mm
02:39 48.0 °F /  8.9 °C 46.9 °F /  8.3 °C 30.08 in /  1018.5 hPa East 5.5 mph /  8.9 km/h 9.2 mph /  14.8 km/h 96 % 0.02 in /  0.51 mm
02:44 48.0 °F /  8.9 °C 46.9 °F /  8.3 °C 30.08 in /  1018.5 hPa East 5.6 mph /  9 km/h 6.9 mph /  11.1 km/h 96 % 0.02 in /  0.51 mm
02:49 48.0 °F /  8.9 °C 46.9 °F /  8.3 °C 30.08 in /  1018.5 hPa ENE 5.2 mph /  8.4 km/h 6.9 mph /  11.1 km/h 96 % 0.01 in /  0.25 mm
02:54 48.0 °F /  8.9 °C 46.9 °F /  8.3 °C 30.07 in /  1018.2 hPa ENE 3.5 mph /  5.6 km/h 4.6 mph /  7.4 km/h 96 % 0.01 in /  0.25 mm
02:59 48.0 °F /  8.9 °C 46.9 °F /  8.3 °C 30.07 in /  1018.2 hPa ENE 5.1 mph /  8.2 km/h 7.0 mph /  11.3 km/h 96 % 0.01 in /  0.25 mm
03:04 48.0 °F /  8.9 °C 46.9 °F /  8.3 °C 30.07 in /  1018.2 hPa East 6.8 mph /  10.9 km/h 9.2 mph /  14.8 km/h 96 % 0.01 in /  0.25 mm
03:09 48.1 °F /  8.9 °C 47.0 °F /  8.3 °C 30.07 in /  1018.2 hPa East 6.8 mph /  10.9 km/h 9.2 mph /  14.8 km/h 96 % 0.01 in /  0.25 mm
03:14 48.1 °F /  8.9 °C 47.0 °F /  8.3 °C 30.07 in /  1018.2 hPa East 6.5 mph /  10.5 km/h 8.1 mph /  13 km/h 96 % 0.01 in /  0.25 mm
03:19 48.1 °F /  8.9 °C 47.0 °F /  8.3 °C 30.08 in /  1018.5 hPa East 6.2 mph /  10 km/h 7.0 mph /  11.3 km/h 96 % 0.01 in /  0.25 mm
03:24 48.0 °F /  8.9 °C 46.9 °F /  8.3 °C 30.07 in /  1018.2 hPa ENE 5.2 mph /  8.4 km/h 8.1 mph /  13 km/h 96 % 0.01 in /  0.25 mm
03:29 48.0 °F /  8.9 °C 46.9 °F /  8.3 °C 30.07 in /  1018.2 hPa ENE 5.5 mph /  8.9 km/h 8.1 mph /  13 km/h 96 % 0.01 in /  0.25 mm
03:34 48.0 °F /  8.9 °C 46.9 °F /  8.3 °C 30.07 in /  1018.2 hPa ENE 5.1 mph /  8.2 km/h 6.9 mph /  11.1 km/h 96 % 0.01 in /  0.25 mm
03:39 48.0 °F /  8.9 °C 46.9 °F /  8.3 °C 30.07 in /  1018.2 hPa East 5.0 mph /  8 km/h 6.9 mph /  11.1 km/h 96 % 0.01 in /  0.25 mm
03:44 48.0 °F /  8.9 °C 47.2 °F /  8.4 °C 30.07 in /  1018.2 hPa East 5.6 mph /  9 km/h 8.1 mph /  13 km/h 97 % 0.01 in /  0.25 mm
03:49 48.0 °F /  8.9 °C 47.2 °F /  8.4 °C 30.07 in /  1018.2 hPa ENE 5.7 mph /  9.2 km/h 8.1 mph /  13 km/h 97 % 0.01 in /  0.25 mm
03:54 48.0 °F /  8.9 °C 47.2 °F /  8.4 °C 30.07 in /  1018.2 hPa East 5.2 mph /  8.4 km/h 8.1 mph /  13 km/h 97 % 0.02 in /  0.51 mm
03:59 47.9 °F /  8.8 °C 47.1 °F /  8.4 °C 30.06 in /  1017.8 hPa ENE 6.1 mph /  9.8 km/h 9.2 mph /  14.8 km/h 97 % 0.02 in /  0.51 mm
04:04 47.9 °F /  8.8 °C 47.1 °F /  8.4 °C 30.06 in /  1017.8 hPa ENE 6.4 mph /  10.3 km/h 10.4 mph /  16.7 km/h 97 % 0.02 in /  0.51 mm
04:09 47.9 °F /  8.8 °C 47.1 °F /  8.4 °C 30.06 in /  1017.8 hPa ENE 6.9 mph /  11.1 km/h 9.0 mph /  14.5 km/h 97 % 0.02 in /  0.51 mm
04:14 48.0 °F /  8.9 °C 47.2 °F /  8.4 °C 30.07 in /  1018.2 hPa ENE 5.2 mph /  8.4 km/h 6.9 mph /  11.1 km/h 97 % 0.02 in /  0.51 mm
04:19 48.0 °F /  8.9 °C 47.2 °F /  8.4 °C 30.07 in /  1018.2 hPa ENE 7.5 mph /  12.1 km/h 10.4 mph /  16.7 km/h 97 % 0.02 in /  0.51 mm
04:24 48.1 °F /  8.9 °C 47.3 °F /  8.5 °C 30.07 in /  1018.2 hPa ENE 6.5 mph /  10.5 km/h 11.5 mph /  18.5 km/h 97 % 0.02 in /  0.51 mm
04:29 48.1 °F /  8.9 °C 47.3 °F /  8.5 °C 30.07 in /  1018.2 hPa ENE 6.0 mph /  9.7 km/h 8.1 mph /  13 km/h 97 % 0.02 in /  0.51 mm
04:31 48.1 °F /  8.9 °C 47.3 °F /  8.5 °C 30.07 in /  1018.2 hPa ENE 5.0 mph /  8 km/h 8.0 mph /  12.9 km/h 97 % 0.00 in /  0 mm
04:36 48.1 °F /  8.9 °C 47.3 °F /  8.5 °C 30.07 in /  1018.2 hPa ENE 6.0 mph /  9.7 km/h 10.0 mph /  16.1 km/h 97 % 0.00 in /  0 mm
04:41 48.2 °F /  9 °C 47.4 °F /  8.6 °C 30.07 in /  1018.2 hPa ENE 6.0 mph /  9.7 km/h 9.0 mph /  14.5 km/h 97 % 0.00 in /  0 mm
04:46 48.2 °F /  9 °C 47.4 °F /  8.6 °C 30.07 in /  1018.2 hPa East 7.0 mph /  11.3 km/h 9.0 mph /  14.5 km/h 97 % 0.00 in /  0 mm
04:51 48.2 °F /  9 °C 47.4 °F /  8.6 °C 30.07 in /  1018.2 hPa East 6.0 mph /  9.7 km/h 10.0 mph /  16.1 km/h 97 % 0.00 in /  0 mm
04:56 48.2 °F /  9 °C 47.4 °F /  8.6 °C 30.07 in /  1018.2 hPa East 7.0 mph /  11.3 km/h 10.0 mph /  16.1 km/h 97 % 0.00 in /  0 mm
05:01 48.2 °F /  9 °C 47.4 °F /  8.6 °C 30.07 in /  1018.2 hPa East 6.0 mph /  9.7 km/h 9.2 mph /  14.8 km/h 97 % 0.01 in /  0.25 mm
05:06 48.2 °F /  9 °C 47.4 °F /  8.6 °C 30.07 in /  1018.2 hPa ENE 5.5 mph /  8.9 km/h 9.2 mph /  14.8 km/h 97 % 0.01 in /  0.25 mm
05:11 48.2 °F /  9 °C 47.4 °F /  8.6 °C 30.07 in /  1018.2 hPa East 6.4 mph /  10.3 km/h 9.2 mph /  14.8 km/h 97 % 0.01 in /  0.25 mm
05:16 48.2 °F /  9 °C 47.4 °F /  8.6 °C 30.07 in /  1018.2 hPa NE 6.5 mph /  10.5 km/h 9.2 mph /  14.8 km/h 97 % 0.01 in /  0.25 mm
05:21 48.2 °F /  9 °C 47.4 °F /  8.6 °C 30.06 in /  1017.8 hPa East 6.4 mph /  10.3 km/h 11.5 mph /  18.5 km/h 97 % 0.01 in /  0.25 mm
05:26 48.2 °F /  9 °C 47.4 °F /  8.6 °C 30.06 in /  1017.8 hPa ENE 7.8 mph /  12.6 km/h 12.7 mph /  20.4 km/h 97 % 0.02 in /  0.51 mm
05:31 48.2 °F /  9 °C 47.4 °F /  8.6 °C 30.06 in /  1017.8 hPa East 7.0 mph /  11.3 km/h 9.2 mph /  14.8 km/h 97 % 0.02 in /  0.51 mm
05:36 48.2 °F /  9 °C 47.4 °F /  8.6 °C 30.07 in /  1018.2 hPa East 7.1 mph /  11.4 km/h 11.5 mph /  18.5 km/h 97 % 0.03 in /  0.76 mm
05:41 48.3 °F /  9.1 °C 47.5 °F /  8.6 °C 30.07 in /  1018.2 hPa ENE 9.3 mph /  15 km/h 13.8 mph /  22.2 km/h 97 % 0.03 in /  0.76 mm
05:46 48.3 °F /  9.1 °C 47.5 °F /  8.6 °C 30.07 in /  1018.2 hPa ENE 8.5 mph /  13.7 km/h 10.4 mph /  16.7 km/h 97 % 0.03 in /  0.76 mm
05:51 48.3 °F /  9.1 °C 47.5 °F /  8.6 °C 30.06 in /  1017.8 hPa ENE 8.4 mph /  13.5 km/h 11.5 mph /  18.5 km/h 97 % 0.02 in /  0.51 mm
05:56 48.4 °F /  9.1 °C 47.6 °F /  8.7 °C 30.07 in /  1018.2 hPa East 7.8 mph /  12.6 km/h 10.4 mph /  16.7 km/h 97 % 0.02 in /  0.51 mm
06:01 48.3 °F /  9.1 °C 47.5 °F /  8.6 °C 30.07 in /  1018.2 hPa ENE 8.6 mph /  13.8 km/h 11.5 mph /  18.5 km/h 97 % 0.02 in /  0.51 mm
06:06 48.3 °F /  9.1 °C 47.5 °F /  8.6 °C 30.07 in /  1018.2 hPa East 8.0 mph /  12.9 km/h 11.5 mph /  18.5 km/h 97 % 0.02 in /  0.51 mm
06:11 48.4 °F /  9.1 °C 47.6 °F /  8.7 °C 30.07 in /  1018.2 hPa East 8.4 mph /  13.5 km/h 10.4 mph /  16.7 km/h 97 % 0.02 in /  0.51 mm
06:16 48.4 °F /  9.1 °C 47.6 °F /  8.7 °C 30.07 in /  1018.2 hPa ENE 10.2 mph /  16.4 km/h 15.0 mph /  24.1 km/h 97 % 0.02 in /  0.51 mm
06:21 48.5 °F /  9.2 °C 47.7 °F /  8.7 °C 30.07 in /  1018.2 hPa East 9.1 mph /  14.6 km/h 11.5 mph /  18.5 km/h 97 % 0.02 in /  0.51 mm
06:26 48.5 °F /  9.2 °C 47.7 °F /  8.7 °C 30.07 in /  1018.2 hPa ENE 8.8 mph /  14.2 km/h 12.7 mph /  20.4 km/h 97 % 0.01 in /  0.25 mm
06:31 48.5 °F /  9.2 °C 47.7 °F /  8.7 °C 30.07 in /  1018.2 hPa ENE 9.0 mph /  14.5 km/h 13.8 mph /  22.2 km/h 97 % 0.01 in /  0.25 mm
06:36 48.5 °F /  9.2 °C 47.7 °F /  8.7 °C 30.07 in /  1018.2 hPa East 8.8 mph /  14.2 km/h 13.8 mph /  22.2 km/h 97 % 0.00 in /  0 mm
06:41 48.6 °F /  9.2 °C 47.8 °F /  8.8 °C 30.08 in /  1018.5 hPa East 9.7 mph /  15.6 km/h 16.0 mph /  25.7 km/h 97 % 0.00 in /  0 mm
06:46 48.6 °F /  9.2 °C 47.8 °F /  8.8 °C 30.08 in /  1018.5 hPa ENE 8.9 mph /  14.3 km/h 13.8 mph /  22.2 km/h 97 % 0.00 in /  0 mm
06:51 48.6 °F /  9.2 °C 47.8 °F /  8.8 °C 30.08 in /  1018.5 hPa ENE 9.4 mph /  15.1 km/h 16.1 mph /  25.9 km/h 97 % 0.00 in /  0 mm
06:56 48.7 °F /  9.3 °C 47.9 °F /  8.8 °C 30.08 in /  1018.5 hPa East 8.7 mph /  14 km/h 11.0 mph /  17.7 km/h 97 % 0.00 in /  0 mm
07:01 48.7 °F /  9.3 °C 47.9 °F /  8.8 °C 30.08 in /  1018.5 hPa East 9.1 mph /  14.6 km/h 12.0 mph /  19.3 km/h 97 % 0.00 in /  0 mm
07:06 48.7 °F /  9.3 °C 47.9 °F /  8.8 °C 30.08 in /  1018.5 hPa East 10.1 mph /  16.3 km/h 16.0 mph /  25.7 km/h 97 % 0.00 in /  0 mm
07:12 48.7 °F /  9.3 °C 47.9 °F /  8.8 °C 30.08 in /  1018.5 hPa ENE 9.0 mph /  14.5 km/h 13.8 mph /  22.2 km/h 97 % 0.00 in /  0 mm
07:17 48.7 °F /  9.3 °C 47.9 °F /  8.8 °C 30.08 in /  1018.5 hPa ENE 8.8 mph /  14.2 km/h 12.7 mph /  20.4 km/h 97 % 0.00 in /  0 mm
07:22 48.7 °F /  9.3 °C 47.9 °F /  8.8 °C 30.08 in /  1018.5 hPa ENE 9.5 mph /  15.3 km/h 12.0 mph /  19.3 km/h 97 % 0.00 in /  0 mm
07:27 48.7 °F /  9.3 °C 47.9 °F /  8.8 °C 30.08 in /  1018.5 hPa ENE 9.3 mph /  15 km/h 12.0 mph /  19.3 km/h 97 % 0.00 in /  0 mm
07:32 48.7 °F /  9.3 °C 47.9 °F /  8.8 °C 30.08 in /  1018.5 hPa East 9.6 mph /  15.4 km/h 11.5 mph /  18.5 km/h 97 % 0.00 in /  0 mm
07:37 48.8 °F /  9.3 °C 48.0 °F /  8.9 °C 30.08 in /  1018.5 hPa East 9.6 mph /  15.4 km/h 13.8 mph /  22.2 km/h 97 % 0.00 in /  0 mm
07:42 48.8 °F /  9.3 °C 48.0 °F /  8.9 °C 30.08 in /  1018.5 hPa ENE 9.9 mph /  15.9 km/h 13.8 mph /  22.2 km/h 97 % 0.00 in /  0 mm
07:47 48.9 °F /  9.4 °C 48.1 °F /  8.9 °C 30.09 in /  1018.8 hPa East 9.9 mph /  15.9 km/h 12.7 mph /  20.4 km/h 97 % 0.00 in /  0 mm
07:52 49.0 °F /  9.4 °C 48.2 °F /  9 °C 30.09 in /  1018.8 hPa ENE 9.3 mph /  15 km/h 12.7 mph /  20.4 km/h 97 % 0.00 in /  0 mm
07:57 49.0 °F /  9.4 °C 48.2 °F /  9 °C 30.09 in /  1018.8 hPa ENE 8.5 mph /  13.7 km/h 11.5 mph /  18.5 km/h 97 % 0.00 in /  0 mm
08:02 49.0 °F /  9.4 °C 48.2 °F /  9 °C 30.09 in /  1018.8 hPa ENE 10.1 mph /  16.3 km/h 13.8 mph /  22.2 km/h 97 % 0.00 in /  0 mm
08:07 49.0 °F /  9.4 °C 48.2 °F /  9 °C 30.09 in /  1018.8 hPa East 8.0 mph /  12.9 km/h 10.4 mph /  16.7 km/h 97 % 0.00 in /  0 mm
08:12 49.0 °F /  9.4 °C 48.2 °F /  9 °C 30.09 in /  1018.8 hPa East 7.6 mph /  12.2 km/h 11.5 mph /  18.5 km/h 97 % 0.00 in /  0 mm
08:17 49.0 °F /  9.4 °C 48.2 °F /  9 °C 30.09 in /  1018.8 hPa ENE 8.8 mph /  14.2 km/h 11.5 mph /  18.5 km/h 97 % 0.00 in /  0 mm
08:22 49.1 °F /  9.5 °C 48.3 °F /  9.1 °C 30.09 in /  1018.8 hPa ENE 8.5 mph /  13.7 km/h 11.5 mph /  18.5 km/h 97 % 0.00 in /  0 mm
08:27 49.1 °F /  9.5 °C 48.6 °F /  9.2 °C 30.09 in /  1018.8 hPa East 9.2 mph /  14.8 km/h 12.7 mph /  20.4 km/h 98 % 0.00 in /  0 mm
08:32 49.2 °F /  9.6 °C 48.7 °F /  9.3 °C 30.09 in /  1018.8 hPa East 9.0 mph /  14.5 km/h 10.4 mph /  16.7 km/h 98 % 0.00 in /  0 mm
08:37 49.2 °F /  9.6 °C 48.7 °F /  9.3 °C 30.09 in /  1018.8 hPa East 8.3 mph /  13.4 km/h 12.7 mph /  20.4 km/h 98 % 0.00 in /  0 mm
08:42 49.2 °F /  9.6 °C 48.7 °F /  9.3 °C 30.09 in /  1018.8 hPa East 8.2 mph /  13.2 km/h 10.4 mph /  16.7 km/h 98 % 0.00 in /  0 mm
08:47 49.2 °F /  9.6 °C 48.4 °F /  9.1 °C 30.09 in /  1018.8 hPa ENE 8.1 mph /  13 km/h 10.4 mph /  16.7 km/h 97 % 0.00 in /  0 mm
08:52 49.3 °F /  9.6 °C 48.5 °F /  9.2 °C 30.09 in /  1018.8 hPa ENE 8.4 mph /  13.5 km/h 11.5 mph /  18.5 km/h 97 % 0.00 in /  0 mm
08:57 49.3 °F /  9.6 °C 48.5 °F /  9.2 °C 30.08 in /  1018.5 hPa East 7.6 mph /  12.2 km/h 10.4 mph /  16.7 km/h 97 % 0.00 in /  0 mm
09:02 49.3 °F /  9.6 °C 48.5 °F /  9.2 °C 30.09 in /  1018.8 hPa East 7.4 mph /  11.9 km/h 9.2 mph /  14.8 km/h 97 % 0.00 in /  0 mm
09:07 49.3 °F /  9.6 °C 48.5 °F /  9.2 °C 30.09 in /  1018.8 hPa East 7.0 mph /  11.3 km/h 8.1 mph /  13 km/h 97 % 0.00 in /  0 mm
09:12 49.4 °F /  9.7 °C 48.6 °F /  9.2 °C 30.09 in /  1018.8 hPa East 8.3 mph /  13.4 km/h 9.2 mph /  14.8 km/h 97 % 0.00 in /  0 mm
09:17 49.5 °F /  9.7 °C 48.7 °F /  9.3 °C 30.09 in /  1018.8 hPa ENE 7.9 mph /  12.7 km/h 10.4 mph /  16.7 km/h 97 % 0.00 in /  0 mm
09:22 49.5 °F /  9.7 °C 48.7 °F /  9.3 °C 30.09 in /  1018.8 hPa East 8.2 mph /  13.2 km/h 10.4 mph /  16.7 km/h 97 % 0.00 in /  0 mm
09:27 49.5 °F /  9.7 °C 48.7 °F /  9.3 °C 30.09 in /  1018.8 hPa ENE 7.2 mph /  11.6 km/h 9.2 mph /  14.8 km/h 97 % 0.01 in /  0.25 mm
09:32 49.5 °F /  9.7 °C 48.7 °F /  9.3 °C 30.08 in /  1018.5 hPa East 8.1 mph /  13 km/h 12.7 mph /  20.4 km/h 97 % 0.01 in /  0.25 mm
09:37 49.4 °F /  9.7 °C 48.6 °F /  9.2 °C 30.08 in /  1018.5 hPa ENE 6.7 mph /  10.8 km/h 10.4 mph /  16.7 km/h 97 % 0.02 in /  0.51 mm
09:42 49.4 °F /  9.7 °C 48.6 °F /  9.2 °C 30.08 in /  1018.5 hPa ENE 7.2 mph /  11.6 km/h 10.4 mph /  16.7 km/h 97 % 0.02 in /  0.51 mm
09:48 49.5 °F /  9.7 °C 48.7 °F /  9.3 °C 30.08 in /  1018.5 hPa East 6.4 mph /  10.3 km/h 8.1 mph /  13 km/h 97 % 0.02 in /  0.51 mm
09:53 49.5 °F /  9.7 °C 48.7 °F /  9.3 °C 30.08 in /  1018.5 hPa East 7.6 mph /  12.2 km/h 9.2 mph /  14.8 km/h 97 % 0.02 in /  0.51 mm
09:58 49.6 °F /  9.8 °C 48.8 °F /  9.3 °C 30.09 in /  1018.8 hPa NE 8.7 mph /  14 km/h 12.7 mph /  20.4 km/h 97 % 0.02 in /  0.51 mm
10:03 49.6 °F /  9.8 °C 48.8 °F /  9.3 °C 30.08 in /  1018.5 hPa East 9.9 mph /  15.9 km/h 13.8 mph /  22.2 km/h 97 % 0.02 in /  0.51 mm
10:08 49.6 °F /  9.8 °C 48.8 °F /  9.3 °C 30.08 in /  1018.5 hPa East 8.0 mph /  12.9 km/h 9.2 mph /  14.8 km/h 97 % 0.02 in /  0.51 mm
10:23 49.5 °F /  9.7 °C 48.7 °F /  9.3 °C 30.08 in /  1018.5 hPa East 6.9 mph /  11.1 km/h 9.2 mph /  14.8 km/h 97 % 0.08 in /  2.03 mm
10:28 49.6 °F /  9.8 °C 48.8 °F /  9.3 °C 30.09 in /  1018.8 hPa East 6.0 mph /  9.7 km/h 6.9 mph /  11.1 km/h 97 % 0.08 in /  2.03 mm
10:33 49.6 °F /  9.8 °C 48.8 °F /  9.3 °C 30.08 in /  1018.5 hPa East 6.5 mph /  10.5 km/h 8.1 mph /  13 km/h 97 % 0.08 in /  2.03 mm
10:38 49.6 °F /  9.8 °C 48.8 °F /  9.3 °C 30.08 in /  1018.5 hPa East 7.3 mph /  11.7 km/h 8.1 mph /  13 km/h 97 % 0.08 in /  2.03 mm
10:43 49.7 °F /  9.8 °C 48.9 °F /  9.4 °C 30.08 in /  1018.5 hPa ESE 6.0 mph /  9.7 km/h 8.1 mph /  13 km/h 97 % 0.08 in /  2.03 mm
10:48 49.6 °F /  9.8 °C 48.8 °F /  9.3 °C 30.08 in /  1018.5 hPa East 6.8 mph /  10.9 km/h 9.2 mph /  14.8 km/h 97 % 0.08 in /  2.03 mm
10:53 49.7 °F /  9.8 °C 48.9 °F /  9.4 °C 30.08 in /  1018.5 hPa East 6.4 mph /  10.3 km/h 8.1 mph /  13 km/h 97 % 0.08 in /  2.03 mm
10:58 49.7 °F /  9.8 °C 48.9 °F /  9.4 °C 30.08 in /  1018.5 hPa East 7.0 mph /  11.3 km/h 8.1 mph /  13 km/h 97 % 0.08 in /  2.03 mm
11:03 49.7 °F /  9.8 °C 48.9 °F /  9.4 °C 30.08 in /  1018.5 hPa East 5.8 mph /  9.3 km/h 8.1 mph /  13 km/h 97 % 0.08 in /  2.03 mm
11:08 49.7 °F /  9.8 °C 49.2 °F /  9.6 °C 30.08 in /  1018.5 hPa East 7.0 mph /  11.3 km/h 8.1 mph /  13 km/h 98 % 0.08 in /  2.03 mm
11:13 49.8 °F /  9.9 °C 49.3 °F /  9.6 °C 30.09 in /  1018.8 hPa East 8.6 mph /  13.8 km/h 11.0 mph /  17.7 km/h 98 % 0.06 in /  1.52 mm
11:14 49.9 °F /  9.9 °C 49.4 °F /  9.7 °C 30.09 in /  1018.8 hPa East 8.4 mph /  13.5 km/h 11.5 mph /  18.5 km/h 98 % 0.06 in /  1.52 mm
11:19 50.0 °F /  10 °C 49.5 °F /  9.7 °C 30.09 in /  1018.8 hPa East 7.5 mph /  12.1 km/h 10.4 mph /  16.7 km/h 98 % 0.05 in /  1.27 mm
11:21 50.0 °F /  10 °C 49.5 °F /  9.7 °C 30.09 in /  1018.8 hPa East 7.5 mph /  12.1 km/h 9.2 mph /  14.8 km/h 98 % 0.04 in /  1.02 mm
11:26 50.1 °F /  10.1 °C 49.6 °F /  9.8 °C 30.08 in /  1018.5 hPa East 7.8 mph /  12.6 km/h 8.1 mph /  13 km/h 98 % 0.03 in /  0.76 mm
11:31 50.2 °F /  10.1 °C 49.7 °F /  9.8 °C 30.07 in /  1018.2 hPa ENE 7.1 mph /  11.4 km/h 9.2 mph /  14.8 km/h 98 % 0.02 in /  0.51 mm
11:36 50.3 °F /  10.2 °C 49.8 °F /  9.9 °C 30.08 in /  1018.5 hPa East 7.3 mph /  11.7 km/h 8.0 mph /  12.9 km/h 98 % 0.03 in /  0.76 mm
11:41 50.4 °F /  10.2 °C 49.9 °F /  9.9 °C 30.08 in /  1018.5 hPa ENE 7.5 mph /  12.1 km/h 9.2 mph /  14.8 km/h 98 % 0.02 in /  0.51 mm
11:46 50.5 °F /  10.3 °C 50.0 °F /  10 °C 30.08 in /  1018.5 hPa East 8.5 mph /  13.7 km/h 9.2 mph /  14.8 km/h 98 % 0.02 in /  0.51 mm
11:51 50.6 °F /  10.3 °C 50.1 °F /  10.1 °C 30.07 in /  1018.2 hPa East 8.0 mph /  12.9 km/h 10.4 mph /  16.7 km/h 98 % 0.02 in /  0.51 mm
11:56 50.8 °F /  10.4 °C 50.3 °F /  10.2 °C 30.07 in /  1018.2 hPa East 9.2 mph /  14.8 km/h 13.8 mph /  22.2 km/h 98 % 0.02 in /  0.51 mm
12:06 50.8 °F /  10.4 °C 50.3 °F /  10.2 °C 30.06 in /  1017.8 hPa East 7.6 mph /  12.2 km/h 10.4 mph /  16.7 km/h 98 % 0.02 in /  0.51 mm
12:11 50.6 °F /  10.3 °C 50.1 °F /  10.1 °C 30.06 in /  1017.8 hPa East 8.9 mph /  14.3 km/h 13.0 mph /  20.9 km/h 98 % 0.02 in /  0.51 mm
12:16 50.5 °F /  10.3 °C 50.0 °F /  10 °C 30.06 in /  1017.8 hPa East 8.5 mph /  13.7 km/h 11.5 mph /  18.5 km/h 98 % 0.01 in /  0.25 mm
12:21 50.3 °F /  10.2 °C 49.8 °F /  9.9 °C 30.06 in /  1017.8 hPa East 8.3 mph /  13.4 km/h 9.2 mph /  14.8 km/h 98 % 0.01 in /  0.25 mm
12:26 50.3 °F /  10.2 °C 49.5 °F /  9.7 °C 30.06 in /  1017.8 hPa East 9.0 mph /  14.5 km/h 13.0 mph /  20.9 km/h 97 % 0.01 in /  0.25 mm
12:31 50.4 °F /  10.2 °C 49.9 °F /  9.9 °C 30.05 in /  1017.5 hPa East 8.7 mph /  14 km/h 12.7 mph /  20.4 km/h 98 % 0.00 in /  0 mm
12:36 50.5 °F /  10.3 °C 50.0 °F /  10 °C 30.05 in /  1017.5 hPa East 8.1 mph /  13 km/h 9.2 mph /  14.8 km/h 98 % 0.00 in /  0 mm
12:41 50.6 °F /  10.3 °C 50.1 °F /  10.1 °C 30.05 in /  1017.5 hPa East 7.7 mph /  12.4 km/h 10.4 mph /  16.7 km/h 98 % 0.00 in /  0 mm
12:46 50.7 °F /  10.4 °C 50.2 °F /  10.1 °C 30.06 in /  1017.8 hPa East 10.0 mph /  16.1 km/h 13.8 mph /  22.2 km/h 98 % 0.00 in /  0 mm
12:51 50.9 °F /  10.5 °C 50.4 °F /  10.2 °C 30.06 in /  1017.8 hPa East 8.1 mph /  13 km/h 15.0 mph /  24.1 km/h 98 % 0.02 in /  0.51 mm
12:56 51.0 °F /  10.6 °C 50.5 °F /  10.3 °C 30.06 in /  1017.8 hPa East 8.7 mph /  14 km/h 11.5 mph /  18.5 km/h 98 % 0.02 in /  0.51 mm
13:01 51.2 °F /  10.7 °C 50.7 °F /  10.4 °C 30.05 in /  1017.5 hPa East 8.4 mph /  13.5 km/h 10.4 mph /  16.7 km/h 98 % 0.04 in /  1.02 mm
13:06 51.3 °F /  10.7 °C 50.8 °F /  10.4 °C 30.05 in /  1017.5 hPa East 7.9 mph /  12.7 km/h 11.5 mph /  18.5 km/h 98 % 0.04 in /  1.02 mm
13:11 51.4 °F /  10.8 °C 50.9 °F /  10.5 °C 30.05 in /  1017.5 hPa East 7.3 mph /  11.7 km/h 10.4 mph /  16.7 km/h 98 % 0.04 in /  1.02 mm
13:16 51.4 °F /  10.8 °C 50.9 °F /  10.5 °C 30.04 in /  1017.2 hPa East 8.8 mph /  14.2 km/h 10.4 mph /  16.7 km/h 98 % 0.04 in /  1.02 mm
13:21 51.3 °F /  10.7 °C 50.8 °F /  10.4 °C 30.04 in /  1017.2 hPa ENE 7.7 mph /  12.4 km/h 9.2 mph /  14.8 km/h 98 % 0.04 in /  1.02 mm
13:26 51.2 °F /  10.7 °C 50.7 °F /  10.4 °C 30.04 in /  1017.2 hPa ENE 7.1 mph /  11.4 km/h 9.2 mph /  14.8 km/h 98 % 0.04 in /  1.02 mm
13:31 51.2 °F /  10.7 °C 50.7 °F /  10.4 °C 30.03 in /  1016.8 hPa ENE 7.9 mph /  12.7 km/h 10.4 mph /  16.7 km/h 98 % 0.04 in /  1.02 mm
13:32 51.2 °F /  10.7 °C 50.7 °F /  10.4 °C 30.03 in /  1016.8 hPa ENE 7.4 mph /  11.9 km/h 10.4 mph /  16.7 km/h 98 % 0.04 in /  1.02 mm
13:42 51.0 °F /  10.6 °C 50.5 °F /  10.3 °C 30.03 in /  1016.8 hPa ENE 7.4 mph /  11.9 km/h 9.2 mph /  14.8 km/h 98 % 0.04 in /  1.02 mm
13:47 50.8 °F /  10.4 °C 50.0 °F /  10 °C 30.02 in /  1016.5 hPa East 7.6 mph /  12.2 km/h 9.2 mph /  14.8 km/h 97 % 0.03 in /  0.76 mm
13:52 50.7 °F /  10.4 °C 49.9 °F /  9.9 °C 30.03 in /  1016.8 hPa East 7.4 mph /  11.9 km/h 9.2 mph /  14.8 km/h 97 % 0.02 in /  0.51 mm
13:57 50.7 °F /  10.4 °C 49.9 °F /  9.9 °C 30.03 in /  1016.8 hPa East 7.3 mph /  11.7 km/h 9.2 mph /  14.8 km/h 97 % 0.01 in /  0.25 mm
14:02 50.6 °F /  10.3 °C 50.1 °F /  10.1 °C 30.03 in /  1016.8 hPa East 8.5 mph /  13.7 km/h 10.4 mph /  16.7 km/h 98 % 0.00 in /  0 mm
14:07 50.5 °F /  10.3 °C 50.0 °F /  10 °C 30.03 in /  1016.8 hPa East 7.6 mph /  12.2 km/h 12.7 mph /  20.4 km/h 98 % 0.00 in /  0 mm
14:12 50.5 °F /  10.3 °C 50.0 °F /  10 °C 30.02 in /  1016.5 hPa East 6.1 mph /  9.8 km/h 8.1 mph /  13 km/h 98 % 0.00 in /  0 mm
14:17 50.6 °F /  10.3 °C 50.1 °F /  10.1 °C 30.02 in /  1016.5 hPa ENE 7.2 mph /  11.6 km/h 9.2 mph /  14.8 km/h 98 % 0.00 in /  0 mm
14:22 50.9 °F /  10.5 °C 50.4 °F /  10.2 °C 30.02 in /  1016.5 hPa East 6.9 mph /  11.1 km/h 9.2 mph /  14.8 km/h 98 % 0.01 in /  0.25 mm
14:27 51.0 °F /  10.6 °C 50.5 °F /  10.3 °C 30.02 in /  1016.5 hPa East 8.0 mph /  12.9 km/h 11.0 mph /  17.7 km/h 98 % 0.01 in /  0.25 mm
14:32 50.9 °F /  10.5 °C 50.4 °F /  10.2 °C 30.02 in /  1016.5 hPa East 8.0 mph /  12.9 km/h 9.2 mph /  14.8 km/h 98 % 0.01 in /  0.25 mm
14:38 50.7 °F /  10.4 °C 50.2 °F /  10.1 °C 30.02 in /  1016.5 hPa ENE 7.4 mph /  11.9 km/h 9.2 mph /  14.8 km/h 98 % 0.01 in /  0.25 mm
14:43 50.6 °F /  10.3 °C 50.1 °F /  10.1 °C 30.01 in /  1016.1 hPa East 8.0 mph /  12.9 km/h 9.2 mph /  14.8 km/h 98 % 0.01 in /  0.25 mm
14:48 50.6 °F /  10.3 °C 50.1 °F /  10.1 °C 30.01 in /  1016.1 hPa ENE 6.3 mph /  10.1 km/h 9.2 mph /  14.8 km/h 98 % 0.01 in /  0.25 mm
14:53 50.7 °F /  10.4 °C 50.2 °F /  10.1 °C 30.01 in /  1016.1 hPa East 7.2 mph /  11.6 km/h 9.2 mph /  14.8 km/h 98 % 0.01 in /  0.25 mm
14:58 50.8 °F /  10.4 °C 50.3 °F /  10.2 °C 30.00 in /  1015.8 hPa ENE 7.8 mph /  12.6 km/h 10.4 mph /  16.7 km/h 98 % 0.01 in /  0.25 mm
15:03 50.8 °F /  10.4 °C 50.3 °F /  10.2 °C 30.00 in /  1015.8 hPa East 8.0 mph /  12.9 km/h 10.4 mph /  16.7 km/h 98 % 0.01 in /  0.25 mm
15:08 50.7 °F /  10.4 °C 50.2 °F /  10.1 °C 30.01 in /  1016.1 hPa East 6.8 mph /  10.9 km/h 9.0 mph /  14.5 km/h 98 % 0.01 in /  0.25 mm
15:13 50.7 °F /  10.4 °C 50.2 °F /  10.1 °C 30.00 in /  1015.8 hPa East 6.7 mph /  10.8 km/h 8.1 mph /  13 km/h 98 % 0.01 in /  0.25 mm
15:18 50.6 °F /  10.3 °C 50.1 °F /  10.1 °C 30.00 in /  1015.8 hPa East 6.9 mph /  11.1 km/h 9.2 mph /  14.8 km/h 98 % 0.01 in /  0.25 mm
15:23 50.6 °F /  10.3 °C 50.1 °F /  10.1 °C 30.00 in /  1015.8 hPa East 6.3 mph /  10.1 km/h 8.0 mph /  12.9 km/h 98 % 0.00 in /  0 mm
15:28 50.6 °F /  10.3 °C 50.1 °F /  10.1 °C 30.00 in /  1015.8 hPa East 5.8 mph /  9.3 km/h 9.2 mph /  14.8 km/h 98 % 0.00 in /  0 mm
15:33 50.6 °F /  10.3 °C 50.1 °F /  10.1 °C 30.00 in /  1015.8 hPa East 7.0 mph /  11.3 km/h 9.2 mph /  14.8 km/h 98 % 0.00 in /  0 mm
15:39 50.6 °F /  10.3 °C 50.1 °F /  10.1 °C 29.99 in /  1015.5 hPa ENE 6.9 mph /  11.1 km/h 8.1 mph /  13 km/h 98 % 0.00 in /  0 mm
15:44 50.6 °F /  10.3 °C 50.1 °F /  10.1 °C 29.99 in /  1015.5 hPa ENE 5.6 mph /  9 km/h 8.1 mph /  13 km/h 98 % 0.00 in /  0 mm
15:49 50.6 °F /  10.3 °C 50.1 °F /  10.1 °C 29.98 in /  1015.1 hPa ENE 6.8 mph /  10.9 km/h 9.2 mph /  14.8 km/h 98 % 0.00 in /  0 mm
15:54 50.6 °F /  10.3 °C 50.1 °F /  10.1 °C 29.98 in /  1015.1 hPa East 8.4 mph /  13.5 km/h 10.4 mph /  16.7 km/h 98 % 0.00 in /  0 mm
15:59 50.6 °F /  10.3 °C 50.1 °F /  10.1 °C 29.98 in /  1015.1 hPa East 7.5 mph /  12.1 km/h 9.2 mph /  14.8 km/h 98 % 0.00 in /  0 mm
16:04 50.5 °F /  10.3 °C 50.0 °F /  10 °C 29.98 in /  1015.1 hPa East 7.1 mph /  11.4 km/h 9.2 mph /  14.8 km/h 98 % 0.00 in /  0 mm
16:09 50.4 °F /  10.2 °C 49.9 °F /  9.9 °C 29.97 in /  1014.8 hPa East 6.7 mph /  10.8 km/h 9.2 mph /  14.8 km/h 98 % 0.00 in /  0 mm
16:14 50.3 °F /  10.2 °C 49.8 °F /  9.9 °C 29.97 in /  1014.8 hPa ENE 7.2 mph /  11.6 km/h 9.0 mph /  14.5 km/h 98 % 0.00 in /  0 mm
16:19 50.3 °F /  10.2 °C 49.8 °F /  9.9 °C 29.96 in /  1014.4 hPa East 7.5 mph /  12.1 km/h 9.2 mph /  14.8 km/h 98 % 0.00 in /  0 mm
16:24 50.3 °F /  10.2 °C 49.8 °F /  9.9 °C 29.96 in /  1014.4 hPa East 7.8 mph /  12.6 km/h 10.4 mph /  16.7 km/h 98 % 0.00 in /  0 mm
16:29 50.3 °F /  10.2 °C 49.8 °F /  9.9 °C 29.97 in /  1014.8 hPa ENE 6.5 mph /  10.5 km/h 10.4 mph /  16.7 km/h 98 % 0.00 in /  0 mm
16:34 50.4 °F /  10.2 °C 49.9 °F /  9.9 °C 29.96 in /  1014.4 hPa East 8.6 mph /  13.8 km/h 11.5 mph /  18.5 km/h 98 % 0.00 in /  0 mm
16:39 50.4 °F /  10.2 °C 49.9 °F /  9.9 °C 29.96 in /  1014.4 hPa East 9.3 mph /  15 km/h 10.4 mph /  16.7 km/h 98 % 0.00 in /  0 mm
16:45 50.4 °F /  10.2 °C 49.9 °F /  9.9 °C 29.97 in /  1014.8 hPa East 8.5 mph /  13.7 km/h 11.5 mph /  18.5 km/h 98 % 0.00 in /  0 mm
16:50 50.4 °F /  10.2 °C 49.9 °F /  9.9 °C 29.96 in /  1014.4 hPa East 8.1 mph /  13 km/h 10.4 mph /  16.7 km/h 98 % 0.00 in /  0 mm
16:55 50.4 °F /  10.2 °C 49.9 °F /  9.9 °C 29.96 in /  1014.4 hPa East 6.7 mph /  10.8 km/h 9.0 mph /  14.5 km/h 98 % 0.00 in /  0 mm
17:00 50.4 °F /  10.2 °C 49.9 °F /  9.9 °C 29.96 in /  1014.4 hPa East 8.2 mph /  13.2 km/h 10.4 mph /  16.7 km/h 98 % 0.00 in /  0 mm
17:05 50.4 °F /  10.2 °C 49.9 °F /  9.9 °C 29.96 in /  1014.4 hPa East 9.7 mph /  15.6 km/h 12.7 mph /  20.4 km/h 98 % 0.01 in /  0.25 mm
17:10 50.3 °F /  10.2 °C 49.8 °F /  9.9 °C 29.96 in /  1014.4 hPa East 9.5 mph /  15.3 km/h 12.7 mph /  20.4 km/h 98 % 0.01 in /  0.25 mm
17:15 50.3 °F /  10.2 °C 49.8 °F /  9.9 °C 29.96 in /  1014.4 hPa East 7.7 mph /  12.4 km/h 10.4 mph /  16.7 km/h 98 % 0.01 in /  0.25 mm
17:20 50.3 °F /  10.2 °C 49.8 °F /  9.9 °C 29.95 in /  1014.1 hPa East 7.5 mph /  12.1 km/h 10.4 mph /  16.7 km/h 98 % 0.02 in /  0.51 mm
17:25 50.3 °F /  10.2 °C 49.8 °F /  9.9 °C 29.94 in /  1013.8 hPa ENE 8.7 mph /  14 km/h 10.4 mph /  16.7 km/h 98 % 0.02 in /  0.51 mm
17:30 50.3 °F /  10.2 °C 49.8 °F /  9.9 °C 29.94 in /  1013.8 hPa NE 8.3 mph /  13.4 km/h 12.7 mph /  20.4 km/h 98 % 0.02 in /  0.51 mm
17:36 50.3 °F /  10.2 °C 49.8 °F /  9.9 °C 29.94 in /  1013.8 hPa ENE 8.0 mph /  12.9 km/h 14.0 mph /  22.5 km/h 98 % 0.01 in /  0.25 mm
17:40 50.3 °F /  10.2 °C 49.8 °F /  9.9 °C 29.93 in /  1013.4 hPa ENE 9.5 mph /  15.3 km/h 11.5 mph /  18.5 km/h 98 % 0.03 in /  0.76 mm
17:46 50.3 °F /  10.2 °C 49.8 °F /  9.9 °C 29.94 in /  1013.8 hPa ENE 9.0 mph /  14.5 km/h 13.0 mph /  20.9 km/h 98 % 0.00 in /  0 mm
17:51 50.2 °F /  10.1 °C 49.7 °F /  9.8 °C 29.94 in /  1013.8 hPa East 8.0 mph /  12.9 km/h 12.0 mph /  19.3 km/h 98 % 0.00 in /  0 mm
17:56 50.1 °F /  10.1 °C 49.6 °F /  9.8 °C 29.94 in /  1013.8 hPa East 9.0 mph /  14.5 km/h 12.0 mph /  19.3 km/h 98 % 0.00 in /  0 mm
18:01 50.1 °F /  10.1 °C 49.6 °F /  9.8 °C 29.94 in /  1013.8 hPa ESE 8.2 mph /  13.2 km/h 10.4 mph /  16.7 km/h 98 % 0.06 in /  1.52 mm
18:06 50.0 °F /  10 °C 49.5 °F /  9.7 °C 29.94 in /  1013.8 hPa East 7.1 mph /  11.4 km/h 12.7 mph /  20.4 km/h 98 % 0.05 in /  1.27 mm
18:11 49.9 °F /  9.9 °C 49.4 °F /  9.7 °C 29.94 in /  1013.8 hPa East 6.7 mph /  10.8 km/h 11.5 mph /  18.5 km/h 98 % 0.06 in /  1.52 mm
18:16 49.9 °F /  9.9 °C 49.4 °F /  9.7 °C 29.94 in /  1013.8 hPa East 6.8 mph /  10.9 km/h 8.1 mph /  13 km/h 98 % 0.06 in /  1.52 mm
18:21 49.9 °F /  9.9 °C 49.4 °F /  9.7 °C 29.94 in /  1013.8 hPa East 7.5 mph /  12.1 km/h 12.7 mph /  20.4 km/h 98 % 0.06 in /  1.52 mm
18:26 49.9 °F /  9.9 °C 49.4 °F /  9.7 °C 29.94 in /  1013.8 hPa East 8.5 mph /  13.7 km/h 11.5 mph /  18.5 km/h 98 % 0.06 in /  1.52 mm
18:31 49.8 °F /  9.9 °C 49.3 °F /  9.6 °C 29.94 in /  1013.8 hPa East 8.7 mph /  14 km/h 10.4 mph /  16.7 km/h 98 % 0.07 in /  1.78 mm
18:36 49.8 °F /  9.9 °C 49.3 °F /  9.6 °C 29.94 in /  1013.8 hPa East 7.5 mph /  12.1 km/h 11.5 mph /  18.5 km/h 98 % 0.06 in /  1.52 mm
18:41 49.7 °F /  9.8 °C 49.2 °F /  9.6 °C 29.93 in /  1013.4 hPa East 8.3 mph /  13.4 km/h 11.5 mph /  18.5 km/h 98 % 0.06 in /  1.52 mm
18:46 49.7 °F /  9.8 °C 49.2 °F /  9.6 °C 29.93 in /  1013.4 hPa East 8.1 mph /  13 km/h 11.5 mph /  18.5 km/h 98 % 0.05 in /  1.27 mm
18:51 49.6 °F /  9.8 °C 49.1 °F /  9.5 °C 29.93 in /  1013.4 hPa East 7.7 mph /  12.4 km/h 10.4 mph /  16.7 km/h 98 % 0.04 in /  1.02 mm
18:56 49.6 °F /  9.8 °C 49.1 °F /  9.5 °C 29.93 in /  1013.4 hPa East 7.6 mph /  12.2 km/h 8.1 mph /  13 km/h 98 % 0.04 in /  1.02 mm
19:01 49.6 °F /  9.8 °C 49.1 °F /  9.5 °C 29.92 in /  1013.1 hPa East 6.9 mph /  11.1 km/h 9.0 mph /  14.5 km/h 98 % 0.04 in /  1.02 mm
19:07 49.6 °F /  9.8 °C 49.1 °F /  9.5 °C 29.92 in /  1013.1 hPa East 7.4 mph /  11.9 km/h 9.2 mph /  14.8 km/h 98 % 0.05 in /  1.27 mm
19:12 49.6 °F /  9.8 °C 49.1 °F /  9.5 °C 29.92 in /  1013.1 hPa East 7.0 mph /  11.3 km/h 9.2 mph /  14.8 km/h 98 % 0.04 in /  1.02 mm
19:17 49.6 °F /  9.8 °C 49.1 °F /  9.5 °C 29.92 in /  1013.1 hPa East 7.7 mph /  12.4 km/h 9.2 mph /  14.8 km/h 98 % 0.04 in /  1.02 mm
19:22 49.6 °F /  9.8 °C 49.1 °F /  9.5 °C 29.91 in /  1012.8 hPa East 6.9 mph /  11.1 km/h 10.4 mph /  16.7 km/h 98 % 0.04 in /  1.02 mm
19:27 49.6 °F /  9.8 °C 49.1 °F /  9.5 °C 29.91 in /  1012.8 hPa ENE 7.9 mph /  12.7 km/h 11.0 mph /  17.7 km/h 98 % 0.05 in /  1.27 mm
19:32 49.7 °F /  9.8 °C 49.2 °F /  9.6 °C 29.91 in /  1012.8 hPa ENE 10.5 mph /  16.9 km/h 12.7 mph /  20.4 km/h 98 % 0.05 in /  1.27 mm
19:33 49.7 °F /  9.8 °C 49.2 °F /  9.6 °C 29.91 in /  1012.8 hPa East 8.6 mph /  13.8 km/h 12.7 mph /  20.4 km/h 98 % 0.05 in /  1.27 mm
19:38 49.9 °F /  9.9 °C 49.4 °F /  9.7 °C 29.91 in /  1012.8 hPa East 8.7 mph /  14 km/h 11.5 mph /  18.5 km/h 98 % 0.07 in /  1.78 mm
19:43 49.9 °F /  9.9 °C 49.4 °F /  9.7 °C 29.91 in /  1012.8 hPa East 8.4 mph /  13.5 km/h 12.7 mph /  20.4 km/h 98 % 0.08 in /  2.03 mm
19:48 50.0 °F /  10 °C 49.5 °F /  9.7 °C 29.91 in /  1012.8 hPa ENE 11.3 mph /  18.2 km/h 16.1 mph /  25.9 km/h 98 % 0.08 in /  2.03 mm
19:58 50.2 °F /  10.1 °C 49.7 °F /  9.8 °C 29.90 in /  1012.4 hPa ENE 11.7 mph /  18.8 km/h 17.3 mph /  27.8 km/h 98 % 0.10 in /  2.54 mm
20:03 50.2 °F /  10.1 °C 49.7 °F /  9.8 °C 29.90 in /  1012.4 hPa East 11.5 mph /  18.5 km/h 16.1 mph /  25.9 km/h 98 % 0.09 in /  2.29 mm
20:08 50.2 °F /  10.1 °C 49.7 °F /  9.8 °C 29.90 in /  1012.4 hPa ENE 11.5 mph /  18.5 km/h 18.4 mph /  29.6 km/h 98 % 0.10 in /  2.54 mm
20:13 50.3 °F /  10.2 °C 49.8 °F /  9.9 °C 29.91 in /  1012.8 hPa ENE 9.0 mph /  14.5 km/h 13.0 mph /  20.9 km/h 98 % 0.10 in /  2.54 mm
20:18 50.3 °F /  10.2 °C 49.8 °F /  9.9 °C 29.91 in /  1012.8 hPa East 9.1 mph /  14.6 km/h 11.5 mph /  18.5 km/h 98 % 0.10 in /  2.54 mm
20:24 50.2 °F /  10.1 °C 49.7 °F /  9.8 °C 29.91 in /  1012.8 hPa East 9.0 mph /  14.5 km/h 13.0 mph /  20.9 km/h 98 % 0.11 in /  2.79 mm
20:29 50.1 °F /  10.1 °C 49.6 °F /  9.8 °C 29.91 in /  1012.8 hPa East 9.3 mph /  15 km/h 13.8 mph /  22.2 km/h 98 % 0.11 in /  2.79 mm
20:34 49.9 °F /  9.9 °C 49.4 °F /  9.7 °C 29.90 in /  1012.4 hPa East 9.7 mph /  15.6 km/h 12.7 mph /  20.4 km/h 98 % 0.09 in /  2.29 mm
20:39 49.9 °F /  9.9 °C 49.4 °F /  9.7 °C 29.91 in /  1012.8 hPa East 7.9 mph /  12.7 km/h 10.4 mph /  16.7 km/h 98 % 0.09 in /  2.29 mm
20:44 49.9 °F /  9.9 °C 49.4 °F /  9.7 °C 29.90 in /  1012.4 hPa East 8.6 mph /  13.8 km/h 12.7 mph /  20.4 km/h 98 % 0.09 in /  2.29 mm
20:49 50.0 °F /  10 °C 49.5 °F /  9.7 °C 29.90 in /  1012.4 hPa East 9.4 mph /  15.1 km/h 11.5 mph /  18.5 km/h 98 % 0.10 in /  2.54 mm
20:54 49.9 °F /  9.9 °C 49.4 °F /  9.7 °C 29.90 in /  1012.4 hPa East 9.4 mph /  15.1 km/h 12.7 mph /  20.4 km/h 98 % 0.10 in /  2.54 mm
20:59 49.9 °F /  9.9 °C 49.4 °F /  9.7 °C 29.90 in /  1012.4 hPa East 8.4 mph /  13.5 km/h 10.4 mph /  16.7 km/h 98 % 0.11 in /  2.79 mm
21:04 49.8 °F /  9.9 °C 49.3 °F /  9.6 °C 29.90 in /  1012.4 hPa East 9.0 mph /  14.5 km/h 11.5 mph /  18.5 km/h 98 % 0.11 in /  2.79 mm
21:09 49.7 °F /  9.8 °C 49.2 °F /  9.6 °C 29.90 in /  1012.4 hPa East 7.0 mph /  11.3 km/h 11.5 mph /  18.5 km/h 98 % 0.11 in /  2.79 mm
21:15 49.7 °F /  9.8 °C 49.2 °F /  9.6 °C 29.90 in /  1012.4 hPa East 8.0 mph /  12.9 km/h 10.4 mph /  16.7 km/h 98 % 0.11 in /  2.79 mm
21:20 49.6 °F /  9.8 °C 49.1 °F /  9.5 °C 29.90 in /  1012.4 hPa East 9.0 mph /  14.5 km/h 11.5 mph /  18.5 km/h 98 % 0.11 in /  2.79 mm
21:25 49.6 °F /  9.8 °C 49.1 °F /  9.5 °C 29.90 in /  1012.4 hPa ESE 9.0 mph /  14.5 km/h 11.5 mph /  18.5 km/h 98 % 0.10 in /  2.54 mm
21:30 49.6 °F /  9.8 °C 49.1 °F /  9.5 °C 29.89 in /  1012.1 hPa East 8.4 mph /  13.5 km/h 11.5 mph /  18.5 km/h 98 % 0.09 in /  2.29 mm
21:35 49.6 °F /  9.8 °C 49.1 °F /  9.5 °C 29.89 in /  1012.1 hPa ENE 9.7 mph /  15.6 km/h 13.8 mph /  22.2 km/h 98 % 0.09 in /  2.29 mm
21:40 49.6 °F /  9.8 °C 49.1 °F /  9.5 °C 29.89 in /  1012.1 hPa East 8.6 mph /  13.8 km/h 11.5 mph /  18.5 km/h 98 % 0.09 in /  2.29 mm
21:45 49.6 °F /  9.8 °C 49.1 °F /  9.5 °C 29.89 in /  1012.1 hPa East 10.4 mph /  16.7 km/h 13.0 mph /  20.9 km/h 98 % 0.08 in /  2.03 mm
21:50 49.6 °F /  9.8 °C 49.1 °F /  9.5 °C 29.89 in /  1012.1 hPa East 8.7 mph /  14 km/h 10.4 mph /  16.7 km/h 98 % 0.07 in /  1.78 mm
21:55 49.7 °F /  9.8 °C 49.2 °F /  9.6 °C 29.89 in /  1012.1 hPa East 8.7 mph /  14 km/h 11.5 mph /  18.5 km/h 98 % 0.04 in /  1.02 mm
22:00 49.7 °F /  9.8 °C 49.2 °F /  9.6 °C 29.89 in /  1012.1 hPa ENE 9.8 mph /  15.8 km/h 12.7 mph /  20.4 km/h 98 % 0.03 in /  0.76 mm
22:05 49.6 °F /  9.8 °C 49.1 °F /  9.5 °C 29.88 in /  1011.7 hPa ENE 9.5 mph /  15.3 km/h 12.7 mph /  20.4 km/h 98 % 0.03 in /  0.76 mm
22:11 49.7 °F /  9.8 °C 49.2 °F /  9.6 °C 29.88 in /  1011.7 hPa East 9.5 mph /  15.3 km/h 11.5 mph /  18.5 km/h 98 % 0.03 in /  0.76 mm
22:16 49.7 °F /  9.8 °C 49.2 °F /  9.6 °C 29.88 in /  1011.7 hPa East 10.0 mph /  16.1 km/h 13.0 mph /  20.9 km/h 98 % 0.00 in /  0 mm
22:21 49.7 °F /  9.8 °C 49.2 °F /  9.6 °C 29.88 in /  1011.7 hPa East 9.0 mph /  14.5 km/h 15.0 mph /  24.1 km/h 98 % 0.00 in /  0 mm
22:26 49.7 °F /  9.8 °C 49.2 °F /  9.6 °C 29.87 in /  1011.4 hPa East 10.0 mph /  16.1 km/h 20.0 mph /  32.2 km/h 98 % 0.00 in /  0 mm
22:31 49.7 °F /  9.8 °C 49.2 °F /  9.6 °C 29.87 in /  1011.4 hPa East 9.4 mph /  15.1 km/h 11.5 mph /  18.5 km/h 98 % 0.02 in /  0.51 mm
22:36 49.6 °F /  9.8 °C 49.1 °F /  9.5 °C 29.87 in /  1011.4 hPa East 10.0 mph /  16.1 km/h 13.0 mph /  20.9 km/h 98 % 0.00 in /  0 mm
22:41 49.6 °F /  9.8 °C 49.1 °F /  9.5 °C 29.87 in /  1011.4 hPa East 10.0 mph /  16.1 km/h 18.0 mph /  29 km/h 98 % 0.00 in /  0 mm
22:46 49.6 °F /  9.8 °C 49.1 °F /  9.5 °C 29.87 in /  1011.4 hPa East 10.0 mph /  16.1 km/h 15.0 mph /  24.1 km/h 98 % 0.00 in /  0 mm
22:51 49.6 °F /  9.8 °C 49.1 °F /  9.5 °C 29.87 in /  1011.4 hPa East 10.0 mph /  16.1 km/h 15.0 mph /  24.1 km/h 98 % 0.00 in /  0 mm
22:56 49.6 °F /  9.8 °C 49.1 °F /  9.5 °C 29.87 in /  1011.4 hPa East 10.0 mph /  16.1 km/h 14.0 mph /  22.5 km/h 98 % 0.00 in /  0 mm
23:01 49.5 °F /  9.7 °C 49.0 °F /  9.4 °C 29.86 in /  1011.1 hPa East 9.2 mph /  14.8 km/h 11.5 mph /  18.5 km/h 98 % 0.01 in /  0.25 mm
23:06 49.5 °F /  9.7 °C 49.0 °F /  9.4 °C 29.86 in /  1011.1 hPa East 8.5 mph /  13.7 km/h 12.7 mph /  20.4 km/h 98 % 0.01 in /  0.25 mm
23:11 49.5 °F /  9.7 °C 49.0 °F /  9.4 °C 29.86 in /  1011.1 hPa East 8.8 mph /  14.2 km/h 11.5 mph /  18.5 km/h 98 % 0.00 in /  0 mm
23:16 49.4 °F /  9.7 °C 48.9 °F /  9.4 °C 29.86 in /  1011.1 hPa East 8.8 mph /  14.2 km/h 12.7 mph /  20.4 km/h 98 % 0.01 in /  0.25 mm
23:21 49.4 °F /  9.7 °C 48.9 °F /  9.4 °C 29.86 in /  1011.1 hPa East 8.4 mph /  13.5 km/h 11.5 mph /  18.5 km/h 98 % 0.01 in /  0.25 mm
23:26 49.4 °F /  9.7 °C 48.9 °F /  9.4 °C 29.86 in /  1011.1 hPa East 8.8 mph /  14.2 km/h 10.4 mph /  16.7 km/h 98 % 0.01 in /  0.25 mm
23:31 49.3 °F /  9.6 °C 48.8 °F /  9.3 °C 29.86 in /  1011.1 hPa ENE 9.0 mph /  14.5 km/h 11.5 mph /  18.5 km/h 98 % 0.01 in /  0.25 mm
23:36 49.3 °F /  9.6 °C 48.8 °F /  9.3 °C 29.86 in /  1011.1 hPa East 8.7 mph /  14 km/h 12.7 mph /  20.4 km/h 98 % 0.01 in /  0.25 mm
23:41 49.3 °F /  9.6 °C 48.8 °F /  9.3 °C 29.85 in /  1010.7 hPa East 8.2 mph /  13.2 km/h 11.0 mph /  17.7 km/h 98 % 0.01 in /  0.25 mm
23:46 49.3 °F /  9.6 °C 48.8 °F /  9.3 °C 29.85 in /  1010.7 hPa ENE 9.0 mph /  14.5 km/h 11.5 mph /  18.5 km/h 98 % 0.01 in /  0.25 mm
23:51 49.3 °F /  9.6 °C 48.8 °F /  9.3 °C 29.85 in /  1010.7 hPa East 9.3 mph /  15 km/h 12.7 mph /  20.4 km/h 98 % 0.02 in /  0.51 mm
23:56 49.4 °F /  9.7 °C 48.9 °F /  9.4 °C 29.85 in /  1010.7 hPa East 9.0 mph /  14.5 km/h 13.8 mph /  22.2 km/h 98 % 0.02 in /  0.51 mm
Crab Meadow Weather
Compliments of Weather Underground - 3 mb

Script developed by  Jim McMurry - jmcmurry@mwt.net Adapted for the template by  Wim van der Kuil - Leuven-Template.eu

Dew Point: The dew point is the temperature to which air must be cooled, at constant barometric pressure, for water vapor to condense into water. The condensed water is called dew. When the dew point temperature falls below freezing it is called the frost point, as the water no longer creates dew but instead creates frost. The dew point is associated with relative humidity. A high relative humidity indicates that the dew point is closer to the current air temperature. If the relative humidity is 100%, the dew point is equal to the current temperature. Given a constant dew point, an increase in temperature will lead to a decrease in relative humidity.